Time;durP1;ratioP1;P1;durP2;ratioP2;P2;SDS_P1;SDS_P2;PMS_P1;PMS_P2;Temp;Humidity;BMP_temperature;BMP_pressure;BME280_temperature;BME280_humidity;BME280_pressure;Samples;Min_cycle;Max_cycle;Signal;HPM_P1;HPM_P2
2022/12/13 00:00:18;;;;;;;25.33;11.35;;;;;;;-4.53;75.90;101156.66;5076341;28;20023;-89
2022/12/13 00:02:44;;;;;;;23.50;12.43;;;;;;;-4.54;76.57;101149.75;5092123;28;20062;-89
2022/12/13 00:05:10;;;;;;;25.65;11.32;;;;;;;-4.54;76.54;101152.34;5080323;28;20115;-89
2022/12/13 00:07:36;;;;;;;26.80;13.63;;;;;;;-4.56;76.09;101151.44;5073766;28;20312;-90
2022/12/13 00:10:03;;;;;;;21.98;11.68;;;;;;;-4.55;76.24;101154.03;5081500;28;20130;-89
2022/12/13 00:12:28;;;;;;;22.30;10.38;;;;;;;-4.54;75.60;101147.19;5076997;28;20054;-90
2022/12/13 00:14:53;;;;;;;26.83;12.27;;;;;;;-4.59;75.57;101141.03;5096144;28;20023;-89
2022/12/13 00:17:18;;;;;;;27.40;11.68;;;;;;;-4.64;75.15;101131.47;5095263;28;20028;-89
2022/12/13 00:19:45;;;;;;;22.48;10.70;;;;;;;-4.60;75.15;101129.84;5098554;28;20028;-90
2022/12/13 00:22:11;;;;;;;25.73;12.45;;;;;;;-4.56;74.87;101146.28;5100478;28;20398;-89
2022/12/13 00:30:42;;;;;;;25.52;11.45;;;;;;;-4.57;75.52;101139.34;5099793;28;20050;-90
2022/12/13 00:33:08;;;;;;;23.60;11.40;;;;;;;-4.60;75.72;101128.97;5072928;28;20056;-90
2022/12/13 00:35:39;;;;;;;28.48;11.85;;;;;;;-4.59;75.95;101141.03;5099230;28;20035;-90
2022/12/13 00:38:04;;;;;;;19.80;10.52;;;;;;;-4.70;76.13;101125.28;5094971;28;20152;-89
2022/12/13 00:40:29;;;;;;;24.27;11.55;;;;;;;-4.75;76.09;101134.59;5088667;28;20110;-90
2022/12/13 00:42:55;;;;;;;27.77;12.45;;;;;;;-4.83;75.23;101134.38;5099197;28;20036;-90
2022/12/13 00:45:20;;;;;;;21.70;11.68;;;;;;;-4.84;74.67;101134.34;5101137;28;20149;-90
2022/12/13 00:47:45;;;;;;;22.40;12.25;;;;;;;-4.91;74.79;101116.13;5103589;28;20024;-90
2022/12/13 00:50:11;;;;;;;21.58;11.05;;;;;;;-4.81;74.89;101142.16;5084312;28;20048;-90
2022/12/13 00:52:36;;;;;;;32.33;12.85;;;;;;;-4.87;74.40;101132.56;5089279;28;20482;-89
2022/12/13 00:55:02;;;;;;;22.52;12.02;;;;;;;-4.90;74.61;101120.47;5087934;28;20483;-90
2022/12/13 00:57:27;;;;;;;22.48;11.43;;;;;;;-4.81;75.52;101139.56;5082202;28;20023;-90
2022/12/13 00:59:52;;;;;;;21.42;11.13;;;;;;;-4.97;74.98;101125.41;5105980;28;20057;-90
2022/12/13 01:02:18;;;;;;;24.77;11.80;;;;;;;-5.10;75.67;101123.31;5076347;28;20016;-90
2022/12/13 01:04:43;;;;;;;25.33;11.40;;;;;;;-4.99;76.11;101127.06;5105667;28;20104;-90
2022/12/13 01:07:08;;;;;;;20.60;10.73;;;;;;;-4.85;76.12;101124.84;5081252;28;20397;-90
2022/12/13 01:09:34;;;;;;;26.15;11.82;;;;;;;-4.74;76.23;101128.59;5078979;28;20032;-90
2022/12/13 01:12:03;;;;;;;28.00;11.57;;;;;;;-4.69;76.29;101138.22;5093491;28;20104;-90
2022/12/13 01:14:29;;;;;;;26.40;12.60;;;;;;;-4.60;76.15;101131.53;5095551;28;20021;-90
2022/12/13 01:16:55;;;;;;;26.50;11.55;;;;;;;-4.66;75.72;101127.97;5109216;28;20118;-90
2022/12/13 01:19:25;;;;;;;24.13;11.38;;;;;;;-4.63;76.16;101135.78;5108647;28;20306;-90
2022/12/13 01:21:56;;;;;;;24.58;12.10;;;;;;;-4.70;75.05;101117.53;5086261;28;20410;-90
2022/12/13 01:24:23;;;;;;;23.10;11.63;;;;;;;-4.77;76.08;101113.03;5081464;28;20077;-90
2022/12/13 01:26:49;;;;;;;25.35;11.95;;;;;;;-4.77;75.94;101125.94;5079382;28;20016;-90
2022/12/13 01:29:15;;;;;;;22.50;11.40;;;;;;;-4.91;75.90;101131.59;5075221;28;20027;-91
2022/12/13 01:31:41;;;;;;;23.95;11.82;;;;;;;-4.96;75.70;101124.56;5091616;28;20469;-90
2022/12/13 01:34:09;;;;;;;30.83;12.98;;;;;;;-4.92;76.02;101118.66;5105856;28;20099;-90
2022/12/13 01:36:34;;;;;;;29.08;12.32;;;;;;;-4.82;75.29;101128.38;5103983;28;20513;-90
2022/12/13 01:39:00;;;;;;;33.50;12.05;;;;;;;-4.82;75.19;101128.38;5086176;28;20028;-91
2022/12/13 01:41:27;;;;;;;24.55;11.48;;;;;;;-4.90;74.84;101119.56;5095589;28;20110;-90
2022/12/13 01:43:59;;;;;;;26.50;11.52;;;;;;;-4.91;75.52;101128.16;5077093;28;20114;-90
2022/12/13 01:46:25;;;;;;;27.73;12.23;;;;;;;-5.02;75.53;101119.25;5097295;28;20359;-90
2022/12/13 01:48:59;;;;;;;26.42;12.05;;;;;;;-5.03;75.39;101139.00;5104008;28;20105;-90
2022/12/13 01:51:31;;;;;;;24.23;12.20;;;;;;;-5.23;75.12;101122.97;5104704;28;20635;-90
2022/12/13 01:54:00;;;;;;;20.80;10.98;;;;;;;-5.22;75.83;101129.03;5081579;28;20031;-90
2022/12/13 01:56:33;;;;;;;30.63;13.27;;;;;;;-5.24;74.97;101133.25;5080770;28;20479;-90
2022/12/13 01:59:00;;;;;;;22.38;11.63;;;;;;;-5.30;74.27;101123.63;5096707;28;20057;-90
2022/12/13 02:01:27;;;;;;;28.27;12.32;;;;;;;-5.24;74.25;101131.53;5087336;28;20028;-90
2022/12/13 02:03:52;;;;;;;26.08;12.73;;;;;;;-5.24;75.05;101126.38;5103037;28;20034;-90
2022/12/13 02:06:33;;;;;;;25.27;12.43;;;;;;;-5.17;74.51;101146.34;5101021;28;20023;-90
2022/12/13 02:09:00;;;;;;;22.33;10.95;;;;;;;-5.21;74.38;101134.22;5105565;28;20031;-90
2022/12/13 02:11:26;;;;;;;23.38;11.55;;;;;;;-5.25;74.30;101129.78;5105546;28;20023;-90
2022/12/13 02:13:51;;;;;;;28.55;12.77;;;;;;;-5.28;74.64;101126.25;5082769;28;20028;-90
2022/12/13 02:16:40;;;;;;;25.52;12.07;;;;;;;-5.32;74.31;101127.84;5096680;28;20028;-90
2022/12/13 02:19:58;;;;;;;23.65;12.80;;;;;;;-5.24;74.66;101136.69;5082732;28;20053;-89
2022/12/13 02:22:45;;;;;;;24.10;11.43;;;;;;;-5.23;74.95;101132.41;5019203;28;20135;-88
2022/12/13 02:25:32;;;;;;;25.10;12.18;;;;;;;-5.26;75.81;101134.91;5040526;28;20697;-88
2022/12/13 02:28:19;;;;;;;24.90;11.93;;;;;;;-5.24;75.28;101131.53;5081677;28;20403;-88
2022/12/13 02:30:51;;;;;;;23.73;11.55;;;;;;;-5.30;75.51;101126.22;5084014;28;20034;-88
2022/12/13 02:33:27;;;;;;;30.65;13.35;;;;;;;-5.39;75.88;101120.78;5080124;28;20510;-89
2022/12/13 02:36:13;;;;;;;32.65;12.85;;;;;;;-5.32;75.67;101134.72;5082849;28;20032;-89
2022/12/13 02:39:13;;;;;;;22.75;11.30;;;;;;;-5.34;75.87;101123.50;5101781;28;20031;-88
2022/12/13 02:41:50;;;;;;;24.42;12.85;;;;;;;-5.35;76.28;101114.91;5078429;28;20357;-89
2022/12/13 02:44:19;;;;;;;26.55;12.82;;;;;;;-5.43;76.26;101116.38;5077709;28;20016;-88
2022/12/13 02:46:53;;;;;;;26.48;11.85;;;;;;;-5.54;75.93;101108.34;5101476;28;20383;-88
2022/12/13 02:49:22;;;;;;;24.25;12.30;;;;;;;-5.56;75.61;101114.25;5080457;28;20023;-88
2022/12/13 02:51:50;;;;;;;26.52;11.77;;;;;;;-5.58;76.10;101118.50;5074927;28;20395;-89
2022/12/13 02:54:16;;;;;;;32.75;12.80;;;;;;;-5.55;76.29;101118.59;5079726;28;20024;-89
2022/12/13 02:56:41;;;;;;;25.63;12.48;;;;;;;-5.63;76.30;101108.06;5074916;28;20049;-88
2022/12/13 02:59:12;;;;;;;28.27;11.95;;;;;;;-5.74;76.60;101097.44;5083158;28;20027;-88
2022/12/13 03:01:56;;;;;;;24.30;11.98;;;;;;;-5.76;75.84;101093.09;5080412;28;20019;-88
2022/12/13 03:04:36;;;;;;;25.90;11.80;;;;;;;-5.78;76.54;101107.59;5106231;28;20035;-89
2022/12/13 03:07:27;;;;;;;29.60;12.40;;;;;;;-5.83;76.40;101099.72;5093666;28;20487;-89
2022/12/13 03:10:05;;;;;;;25.25;12.23;;;;;;;-5.84;76.42;101102.28;5098732;28;20050;-89
2022/12/13 03:15:55;;;;;;;29.55;12.02;;;;;;;-5.88;77.02;101085.84;5092035;28;20450;-88
2022/12/13 03:18:23;;;;;;;25.48;11.77;;;;;;;-5.82;77.21;101092.91;5075307;28;20406;-89
2022/12/13 03:21:01;;;;;;;30.17;12.80;;;;;;;-5.76;76.59;101105.97;5096481;28;20031;-88
2022/12/13 03:23:26;;;;;;;27.92;11.85;;;;;;;-5.76;76.62;101101.69;5075735;28;20467;-89
2022/12/13 03:25:55;;;;;;;27.15;12.25;;;;;;;-5.80;76.81;101105.00;5102456;28;20058;-89
2022/12/13 03:28:21;;;;;;;25.77;11.60;;;;;;;-5.81;77.19;101097.22;5072643;28;20113;-88
2022/12/13 03:30:47;;;;;;;31.75;12.25;;;;;;;-5.84;76.79;101087.69;5073623;28;20502;-89
2022/12/13 03:33:12;;;;;;;31.85;12.70;;;;;;;-5.87;77.23;101092.78;5079063;28;20165;-89
2022/12/13 03:35:40;;;;;;;25.63;12.02;;;;;;;-5.96;77.05;101075.38;5090841;28;20375;-88
2022/12/13 03:38:05;;;;;;;33.35;13.80;;;;;;;-5.87;77.03;101103.06;5078181;28;20115;-88
2022/12/13 03:40:32;;;;;;;32.22;13.10;;;;;;;-5.95;77.31;101096.84;5082395;28;20625;-88
2022/12/13 03:42:57;;;;;;;26.70;12.18;;;;;;;-5.97;77.71;101088.19;5086554;28;20028;-90
2022/12/13 03:45:23;;;;;;;31.50;12.93;;;;;;;-6.00;77.53;101091.56;5081994;28;20406;-89
2022/12/13 03:47:48;;;;;;;30.92;13.43;;;;;;;-5.95;78.13;101094.25;5079392;28;20453;-89
2022/12/13 03:50:13;;;;;;;28.63;12.77;;;;;;;-5.89;78.26;101099.56;5085826;28;20491;-89
2022/12/13 03:52:39;;;;;;;28.83;12.52;;;;;;;-5.97;77.93;101081.34;5076764;28;20046;-88
2022/12/13 03:55:04;;;;;;;32.22;14.35;;;;;;;-5.95;77.82;101094.25;5081684;28;20020;-89
2022/12/13 03:57:30;;;;;;;26.25;11.82;;;;;;;-5.97;77.77;101085.59;5091628;28;20035;-88
2022/12/13 03:59:55;;;;;;;23.02;11.70;;;;;;;-5.99;78.01;101082.13;5081383;28;20019;-88
2022/12/13 04:02:20;;;;;;;34.08;12.77;;;;;;;-5.98;77.42;101095.03;5093473;28;20058;-88
2022/12/13 04:04:45;;;;;;;24.15;11.48;;;;;;;-6.07;77.28;101086.16;5077681;28;20131;-88
2022/12/13 04:07:11;;;;;;;28.77;11.50;;;;;;;-6.04;77.29;101094.84;5076085;28;20027;-88
2022/12/13 04:09:36;;;;;;;29.02;12.00;;;;;;;-6.08;77.56;101085.28;5093824;28;20028;-89
2022/12/13 04:14:45;;;;;;;26.90;12.00;;;;;;;-6.04;77.77;101087.13;5098161;28;20035;-89
2022/12/13 04:17:10;;;;;;;30.00;12.50;;;;;;;-6.01;77.91;101083.78;5101740;28;20032;-88
2022/12/13 04:19:36;;;;;;;27.38;12.93;;;;;;;-6.01;77.71;101078.66;5079185;28;20083;-89
2022/12/13 04:22:01;;;;;;;26.83;12.45;;;;;;;-6.03;77.94;101075.13;5081296;28;20028;-88
2022/12/13 04:24:26;;;;;;;24.33;11.65;;;;;;;-6.05;77.58;101071.66;5081752;28;20360;-89
2022/12/13 04:26:51;;;;;;;26.25;11.90;;;;;;;-6.07;77.94;101070.72;5085982;28;20141;-88
2022/12/13 04:29:17;;;;;;;31.42;12.73;;;;;;;-6.11;78.26;101071.44;5101533;28;20396;-88
2022/12/13 04:31:42;;;;;;;23.95;11.73;;;;;;;-6.08;77.97;101079.25;5102106;28;20028;-88
2022/12/13 04:34:08;;;;;;;29.63;12.18;;;;;;;-6.17;78.26;101067.84;5104320;28;20048;-89
2022/12/13 04:36:33;;;;;;;25.25;11.02;;;;;;;-6.06;78.61;101075.94;5082460;28;20418;-89
2022/12/13 04:39:01;;;;;;;28.33;11.45;;;;;;;-6.05;78.01;101081.94;5096992;28;20448;-89
2022/12/13 04:41:26;;;;;;;27.48;11.55;;;;;;;-6.06;78.25;101075.94;5076387;28;20063;-89
2022/12/13 04:43:53;;;;;;;25.52;11.65;;;;;;;-6.08;78.54;101066.41;5091901;28;20032;-88
2022/12/13 04:46:19;;;;;;;31.15;13.20;;;;;;;-6.04;78.37;101063.97;5093415;28;20036;-89
2022/12/13 04:48:46;;;;;;;28.90;12.43;;;;;;;-6.11;77.38;101064.59;5101118;28;20023;-88
2022/12/13 04:51:11;;;;;;;26.70;11.75;;;;;;;-6.12;77.58;101065.44;5077797;28;20318;-89
2022/12/13 04:53:36;;;;;;;27.55;12.98;;;;;;;-6.08;78.17;101066.41;5077534;28;20032;-88
2022/12/13 04:56:03;;;;;;;28.50;12.50;;;;;;;-6.03;78.24;101075.13;5077127;28;20111;-88
2022/12/13 04:58:29;;;;;;;29.17;12.07;;;;;;;-6.05;78.08;101066.50;5077876;28;20475;-88
2022/12/13 05:00:54;;;;;;;27.30;13.10;;;;;;;-6.02;78.49;101066.56;5075686;28;20036;-88
2022/12/13 05:03:20;;;;;;;30.85;12.10;;;;;;;-6.24;78.55;101029.91;5097102;28;20505;-89
2022/12/13 05:05:45;;;;;;;27.25;11.55;;;;;;;-6.16;78.24;101053.28;5084905;28;20119;-89
2022/12/13 05:08:11;;;;;;;24.92;11.38;;;;;;;-6.07;77.98;101074.16;5091892;28;20028;-88
2022/12/13 05:10:36;;;;;;;25.88;11.07;;;;;;;-6.26;78.24;101044.41;5092096;28;20475;-89
2022/12/13 05:13:02;;;;;;;27.92;12.18;;;;;;;-6.18;77.89;101068.69;5076997;28;20024;-89
2022/12/13 05:15:29;;;;;;;30.00;12.05;;;;;;;-6.23;77.92;101059.09;5089170;28;20016;-88
2022/12/13 05:17:54;;;;;;;31.33;13.73;;;;;;;-6.14;78.35;101066.22;5096171;28;20107;-89
2022/12/13 05:20:20;;;;;;;26.58;11.38;;;;;;;-6.29;78.51;101044.34;5086761;28;20133;-89
2022/12/13 05:22:45;;;;;;;22.73;10.68;;;;;;;-6.22;78.36;101051.41;5078136;28;20035;-89
2022/12/13 05:25:10;;;;;;;28.02;12.90;;;;;;;-6.25;78.60;101053.00;5105377;28;20069;-89
2022/12/13 05:27:35;;;;;;;28.75;12.38;;;;;;;-6.20;78.96;101056.63;5086438;28;20016;-88
2022/12/13 05:30:01;;;;;;;25.13;12.50;;;;;;;-6.09;78.89;101041.50;5084223;28;20061;-88
2022/12/13 05:32:26;;;;;;;26.23;11.48;;;;;;;-6.08;78.71;101043.25;5074251;28;20494;-89
2022/12/13 05:34:51;;;;;;;28.38;12.43;;;;;;;-6.11;78.83;101030.28;5107768;28;20031;-89
2022/12/13 05:37:17;;;;;;;30.45;11.82;;;;;;;-6.09;78.86;101039.78;5083467;28;20154;-89
2022/12/13 05:39:42;;;;;;;30.65;12.32;;;;;;;-6.10;78.88;101032.03;5092374;28;20501;-89
2022/12/13 05:42:08;;;;;;;25.65;11.73;;;;;;;-6.09;79.01;101029.50;5098511;28;20035;-88
2022/12/13 05:44:33;;;;;;;27.20;12.38;;;;;;;-6.17;79.08;101018.97;5082898;28;20077;-88
2022/12/13 05:46:59;;;;;;;35.20;13.27;;;;;;;-6.20;78.89;101011.19;5104026;28;20016;-89
2022/12/13 05:49:24;;;;;;;24.95;11.40;;;;;;;-6.08;79.22;101033.81;5077245;28;20085;-88
2022/12/13 05:51:50;;;;;;;23.20;12.45;;;;;;;-6.08;78.89;101040.66;5083684;28;20399;-89
2022/12/13 05:54:15;;;;;;;29.13;12.13;;;;;;;-6.15;78.99;101026.75;5103725;28;20032;-89
2022/12/13 05:56:40;;;;;;;34.63;12.25;;;;;;;-6.14;79.14;101032.78;5106500;28;20028;-89
2022/12/13 05:59:05;;;;;;;28.77;12.13;;;;;;;-6.17;79.37;101025.81;5082651;28;20034;-88
2022/12/13 06:01:31;;;;;;;23.58;11.68;;;;;;;-6.19;79.38;101014.63;5083420;28;20023;-88
2022/12/13 06:03:56;;;;;;;28.20;12.50;;;;;;;-6.17;79.33;101024.13;5094325;28;20372;-89
2022/12/13 06:06:21;;;;;;;25.58;12.75;;;;;;;-6.06;79.67;101039.00;5095756;28;20028;-88
2022/12/13 06:08:47;;;;;;;26.58;12.65;;;;;;;-6.14;79.67;101032.78;5078390;28;20031;-89
2022/12/13 06:11:14;;;;;;;28.52;12.25;;;;;;;-6.14;79.20;101030.19;5080857;28;20464;-89
2022/12/13 06:13:41;;;;;;;29.95;12.50;;;;;;;-6.11;79.57;101040.56;5089746;28;20062;-89
2022/12/13 06:16:06;;;;;;;28.92;12.00;;;;;;;-6.18;79.64;101030.09;5092140;28;20475;-89
2022/12/13 06:18:34;;;;;;;25.88;12.45;;;;;;;-6.08;79.55;101040.66;5099692;28;20027;-89
2022/12/13 06:21:04;;;;;;;31.35;13.27;;;;;;;-6.06;79.80;101045.03;5086383;28;20073;-88
2022/12/13 06:23:31;;;;;;;36.60;15.27;;;;;;;-6.23;79.50;101016.22;5074154;28;20131;-89
2022/12/13 06:25:56;;;;;;;31.98;13.27;;;;;;;-6.10;79.53;101038.06;5110524;28;20019;-89
2022/12/13 06:28:22;;;;;;;31.10;14.23;;;;;;;-6.22;79.59;101017.09;5100456;28;20035;-89
2022/12/13 06:30:51;;;;;;;32.60;12.70;;;;;;;-6.18;79.30;101026.66;5098935;28;20140;-89
2022/12/13 06:33:18;;;;;;;32.95;13.68;;;;;;;-6.18;79.13;101022.38;5098647;28;20028;-89
2022/12/13 06:35:43;;;;;;;30.30;12.90;;;;;;;-6.12;78.43;101043.97;5083331;28;20432;-89
2022/12/13 06:38:09;;;;;;;31.77;13.60;;;;;;;-6.12;78.45;101054.25;5081906;28;20020;-88
2022/12/13 06:40:34;;;;;;;31.75;15.00;;;;;;;-6.19;78.69;101048.06;5080650;28;20959;-89
2022/12/13 06:42:59;;;;;;;30.70;12.65;;;;;;;-6.32;78.97;101036.50;5084971;28;20118;-89
2022/12/13 06:45:25;;;;;;;30.30;12.48;;;;;;;-6.25;78.81;101053.91;5107182;28;20031;-89
2022/12/13 06:47:50;;;;;;;36.45;14.98;;;;;;;-6.30;79.11;101045.13;5078370;28;20039;-89
2022/12/13 06:50:15;;;;;;;34.10;13.27;;;;;;;-6.24;78.84;101044.47;5088854;28;20039;-88
2022/12/13 06:52:41;;;;;;;33.30;13.95;;;;;;;-6.21;79.39;101049.69;5081261;28;20079;-88
2022/12/13 06:55:06;;;;;;;28.98;13.02;;;;;;;-6.25;79.37;101035.91;5100112;28;20016;-89
2022/12/13 06:57:32;;;;;;;28.83;13.38;;;;;;;-6.13;79.37;101047.38;5104924;28;20036;-89
2022/12/13 06:59:59;;;;;;;33.00;12.95;;;;;;;-6.17;79.74;101034.41;5093454;28;20016;-89
2022/12/13 07:02:24;;;;;;;28.90;12.80;;;;;;;-6.11;79.30;101043.13;5078796;28;20031;-89
2022/12/13 07:04:49;;;;;;;37.50;13.98;;;;;;;-6.20;78.86;101034.34;5099824;28;20055;-88
2022/12/13 07:07:15;;;;;;;28.38;13.18;;;;;;;-6.21;79.37;101029.13;5085912;28;20114;-89
2022/12/13 07:09:40;;;;;;;31.85;12.85;;;;;;;-6.27;79.49;101019.53;5078364;28;20077;-89
2022/12/13 07:12:05;;;;;;;34.70;15.00;;;;;;;-6.20;79.67;101042.06;5095216;28;20039;-88
2022/12/13 07:14:31;;;;;;;30.10;14.10;;;;;;;-6.21;80.05;101035.13;5076696;28;20483;-89
2022/12/13 07:16:58;;;;;;;35.10;13.15;;;;;;;-6.11;79.76;101051.72;5081497;28;20032;-89
2022/12/13 07:19:23;;;;;;;30.83;14.88;;;;;;;-6.13;79.86;101043.09;5079607;28;20032;-89
2022/12/13 07:21:48;;;;;;;35.53;14.93;;;;;;;-6.24;79.95;101017.06;5102626;28;20513;-89
2022/12/13 07:24:13;;;;;;;44.22;16.67;;;;;;;-6.09;80.12;101044.06;5078366;28;20072;-89
2022/12/13 07:26:39;;;;;;;33.92;15.00;;;;;;;-6.02;80.58;101039.13;5099289;28;20031;-88
2022/12/13 07:29:04;;;;;;;46.92;15.32;;;;;;;-6.03;80.41;101026.22;5075232;28;20020;-89
2022/12/13 07:31:29;;;;;;;35.30;15.27;;;;;;;-5.98;80.40;101030.69;5074287;28;20020;-89
2022/12/13 07:33:55;;;;;;;32.38;14.50;;;;;;;-5.93;80.85;101035.97;5076946;28;20024;-89
2022/12/13 07:36:22;;;;;;;45.08;16.48;;;;;;;-5.75;81.04;101043.31;5080846;28;20176;-89
2022/12/13 07:38:52;;;;;;;32.78;13.38;;;;;;;-5.74;80.59;101038.22;5079572;28;20490;-89
2022/12/13 07:41:18;;;;;;;47.83;16.70;;;;;;;-5.74;80.58;101039.91;5090898;28;20024;-88
2022/12/13 07:43:43;;;;;;;34.63;14.80;;;;;;;-5.72;80.15;101057.16;5080166;28;20034;-88
2022/12/13 07:46:10;;;;;;;32.40;13.98;;;;;;;-5.72;80.05;101041.72;5076662;28;20554;-89
2022/12/13 07:48:35;;;;;;;32.85;13.45;;;;;;;-5.70;80.04;101037.47;5075008;28;20059;-89
2022/12/13 07:51:04;;;;;;;33.13;15.05;;;;;;;-5.59;80.49;101054.97;5074495;28;20493;-91
2022/12/13 07:53:29;;;;;;;34.40;15.23;;;;;;;-5.48;80.75;101056.13;5100080;28;20518;-90
2022/12/13 07:55:55;;;;;;;38.75;15.88;;;;;;;-5.39;80.74;101051.22;5092600;28;20115;-91
2022/12/13 07:58:20;;;;;;;40.33;16.85;;;;;;;-5.34;80.46;101054.81;5085305;28;20077;-90
2022/12/13 08:00:46;;;;;;;38.92;17.13;;;;;;;-5.33;80.18;101051.38;5099939;28;20051;-91
2022/12/13 08:03:12;;;;;;;30.73;14.02;;;;;;;-5.21;80.14;101061.19;5077332;28;20019;-91
2022/12/13 08:05:38;;;;;;;38.30;16.90;;;;;;;-5.18;80.09;101054.38;5097364;28;20040;-91
2022/12/13 08:08:05;;;;;;;37.65;17.38;;;;;;;-5.19;80.55;101044.91;5093030;28;20031;-91
2022/12/13 08:10:31;;;;;;;36.58;16.58;;;;;;;-4.99;80.79;101060.94;5083954;28;20067;-91
2022/12/13 08:12:57;;;;;;;40.67;16.98;;;;;;;-4.90;80.56;101061.16;5107393;28;20530;-91
2022/12/13 08:15:23;;;;;;;41.65;19.05;;;;;;;-4.91;80.48;101038.78;5077575;28;20032;-90
2022/12/13 08:17:48;;;;;;;40.72;18.08;;;;;;;-4.78;80.24;101052.84;5077501;28;20559;-91
2022/12/13 08:20:14;;;;;;;41.55;16.95;;;;;;;-4.75;80.16;101047.78;5082237;28;20436;-91
2022/12/13 08:22:39;;;;;;;44.10;17.63;;;;;;;-4.68;80.11;101046.22;5091282;28;20035;-91
2022/12/13 08:25:05;;;;;;;35.80;17.25;;;;;;;-4.65;80.13;101049.75;5091366;28;20142;-91
2022/12/13 08:27:31;;;;;;;43.42;18.35;;;;;;;-4.48;80.08;101054.44;5097427;28;20040;-91
2022/12/13 08:29:56;;;;;;;43.40;18.48;;;;;;;-4.26;80.35;101050.66;5078018;28;20077;-92
2022/12/13 08:32:22;;;;;;;39.38;16.85;;;;;;;-4.04;80.53;101058.06;5080374;28;20056;-90
2022/12/13 08:34:47;;;;;;;51.53;19.48;;;;;;;-3.92;79.83;101066.09;5105654;28;20035;-90
2022/12/13 08:37:12;;;;;;;42.75;17.73;;;;;;;-3.88;79.12;101067.88;5078727;28;20032;-91
2022/12/13 08:39:38;;;;;;;41.05;19.20;;;;;;;-3.70;79.71;101064.84;5078882;28;20356;-90
2022/12/13 08:42:15;;;;;;;49.00;19.85;;;;;;;-3.57;79.41;101062.53;5076442;28;20519;-91
2022/12/13 08:44:41;;;;;;;40.15;16.67;;;;;;;-3.52;78.81;101061.78;5098107;28;20038;-90
2022/12/13 08:47:07;;;;;;;45.95;17.77;;;;;;;-3.47;78.23;101061.88;5097021;28;20107;-91
2022/12/13 08:49:32;;;;;;;43.60;18.90;;;;;;;-3.36;78.31;101069.00;5076874;28;20054;-90
2022/12/13 08:51:58;;;;;;;47.70;19.58;;;;;;;-3.22;78.09;101069.25;5075860;28;20103;-90
2022/12/13 08:54:23;;;;;;;52.28;21.58;;;;;;;-2.97;78.26;101070.59;5093968;28;20020;-90
2022/12/13 08:56:49;;;;;;;44.63;20.10;;;;;;;-2.67;78.41;101080.63;5106377;28;20024;-90
2022/12/13 08:59:14;;;;;;;47.53;21.35;;;;;;;-2.27;78.31;101083.88;5094005;28;20035;-91
2022/12/13 09:01:39;;;;;;;47.92;20.95;;;;;;;-2.02;76.17;101084.25;5078767;28;20106;-88
2022/12/13 09:04:05;;;;;;;44.85;20.52;;;;;;;-1.95;75.62;101086.09;5079886;28;20061;-89
2022/12/13 09:06:30;;;;;;;40.60;16.33;;;;;;;-1.79;75.49;101080.28;5074300;28;20024;-88
2022/12/13 09:08:55;;;;;;;49.97;19.23;;;;;;;-1.73;75.94;101082.94;5078576;28;20022;-89
2022/12/13 09:11:21;;;;;;;48.17;20.92;;;;;;;-1.48;76.62;101070.34;5081649;28;20024;-87
2022/12/13 09:13:47;;;;;;;42.78;19.15;;;;;;;-0.72;75.27;101070.31;5083996;28;20248;-87
2022/12/13 09:16:18;;;;;;;49.97;21.63;;;;;;;-0.47;74.56;101071.38;5080530;28;20120;-87
2022/12/13 09:18:45;;;;;;;47.07;19.37;;;;;;;-0.79;73.27;101069.38;5101254;28;20839;-88
2022/12/13 09:21:12;;;;;;;41.47;19.58;;;;;;;-0.87;73.82;101089.19;5079354;28;20027;-88
2022/12/13 09:23:40;;;;;;;43.83;19.00;;;;;;;-0.39;74.61;101078.38;5074136;28;20489;-88
2022/12/13 09:26:06;;;;;;;41.70;19.33;;;;;;;0.30;72.01;101080.59;5093439;28;20023;-88
2022/12/13 09:28:33;;;;;;;46.63;20.13;;;;;;;1.98;69.40;101081.84;5076956;28;20028;-87
2022/12/13 09:30:59;;;;;;;40.85;19.98;;;;;;;3.37;66.67;101077.81;5072294;28;20027;-87
2022/12/13 09:33:24;;;;;;;39.70;17.52;;;;;;;4.37;62.82;101067.31;5080836;28;20028;-87
2022/12/13 09:35:51;;;;;;;36.70;18.67;;;;;;;5.67;58.97;101083.03;5095911;28;20016;-87
2022/12/13 09:38:16;;;;;;;34.50;17.60;;;;;;;5.18;58.65;101083.78;5100731;28;20030;-88
2022/12/13 09:40:45;;;;;;;35.13;16.52;;;;;;;3.62;59.43;101052.34;5097359;28;20040;-88
2022/12/13 09:43:20;;;;;;;35.58;17.35;;;;;;;3.17;59.47;101077.06;5079743;28;20016;-88
2022/12/13 09:45:46;;;;;;;37.47;17.27;;;;;;;4.21;59.66;101071.00;5085333;28;20376;-88
2022/12/13 09:48:17;;;;;;;34.03;16.48;;;;;;;5.28;56.73;101061.78;5104224;28;20479;-89
2022/12/13 09:50:44;;;;;;;38.17;17.55;;;;;;;6.05;53.37;101070.16;5099369;28;20503;-88
2022/12/13 09:53:14;;;;;;;31.17;16.00;;;;;;;6.42;55.24;101066.84;5095854;28;20048;-88
2022/12/13 09:55:51;;;;;;;35.53;16.90;;;;;;;7.16;52.19;101067.03;5099678;28;20028;-88
2022/12/13 09:58:22;;;;;;;33.80;17.13;;;;;;;7.77;50.73;101054.19;5102101;28;20491;-88
2022/12/13 10:00:50;;;;;;;37.28;16.33;;;;;;;8.06;49.71;101049.94;5075992;28;20475;-89
2022/12/13 10:03:18;;;;;;;33.28;15.65;;;;;;;8.56;49.87;101056.50;5081117;28;20023;-88
2022/12/13 10:05:51;;;;;;;24.83;14.27;;;;;;;8.61;45.77;101044.06;5077601;28;20054;-89
2022/12/13 10:08:23;;;;;;;33.95;16.13;;;;;;;7.94;47.64;101045.88;5076095;28;20024;-88
2022/12/13 10:10:51;;;;;;;32.13;16.85;;;;;;;8.18;46.92;101057.53;5091149;28;20036;-88
2022/12/13 10:13:20;;;;;;;32.95;16.65;;;;;;;8.34;48.06;101031.63;5102891;28;20019;-88
2022/12/13 10:16:00;;;;;;;31.30;15.23;;;;;;;8.31;48.40;101050.16;5095659;28;20063;-88
2022/12/13 10:18:37;;;;;;;29.48;15.23;;;;;;;8.43;48.35;101034.03;5090890;28;20598;-88
2022/12/13 10:21:08;;;;;;;30.33;15.40;;;;;;;8.18;46.03;101033.81;5103087;28;20398;-91
2022/12/13 10:23:34;;;;;;;30.52;15.02;;;;;;;7.75;47.36;101023.56;5076730;28;20024;-91
2022/12/13 10:26:00;;;;;;;29.48;15.70;;;;;;;6.86;49.77;101020.44;5079039;28;20046;-92
2022/12/13 10:28:29;;;;;;;34.75;17.38;;;;;;;6.02;51.93;101032.63;5083056;28;20046;-92
2022/12/13 10:30:56;;;;;;;32.50;16.38;;;;;;;5.52;54.40;101029.09;5104981;28;20475;-92
2022/12/13 10:33:23;;;;;;;31.60;15.68;;;;;;;5.56;53.13;101018.50;5078169;28;20054;-91
2022/12/13 10:36:14;;;;;;;33.10;16.25;;;;;;;5.28;54.49;101027.72;5078504;28;20386;-91
2022/12/13 10:38:42;;;;;;;33.63;17.08;;;;;;;5.81;52.94;101016.31;5074494;28;20028;-90
2022/12/13 10:41:29;;;;;;;32.58;19.35;;;;;;;6.71;51.70;101016.34;5076888;28;20031;-93
2022/12/13 10:44:08;;;;;;;32.53;17.02;;;;;;;7.72;50.93;101003.44;5101612;28;20107;-91
2022/12/13 10:46:34;;;;;;;33.42;16.65;;;;;;;8.60;46.69;101008.06;5090304;28;20368;-92
2022/12/13 10:49:00;;;;;;;32.28;16.30;;;;;;;8.69;44.18;101006.94;5084949;28;20034;-91
2022/12/13 10:51:26;;;;;;;29.58;17.02;;;;;;;8.80;43.97;101011.88;5073264;28;20047;-91
2022/12/13 10:53:55;;;;;;;29.13;15.43;;;;;;;8.82;43.61;101010.09;5084484;28;20027;-91
2022/12/13 10:56:22;;;;;;;35.95;17.10;;;;;;;8.82;42.92;100995.13;5079835;28;20470;-90
2022/12/13 10:58:50;;;;;;;32.20;15.73;;;;;;;9.20;42.01;100982.50;5098102;28;20368;-90
2022/12/13 11:01:15;;;;;;;33.15;15.50;;;;;;;9.23;43.49;100984.16;5088537;28;20541;-91
2022/12/13 11:03:40;;;;;;;32.43;16.30;;;;;;;9.42;43.83;100974.78;5076033;28;20024;-91
2022/12/13 11:06:12;;;;;;;31.55;16.05;;;;;;;9.61;44.37;100988.22;5075552;28;20846;-91
2022/12/13 11:08:38;;;;;;;28.75;16.15;;;;;;;9.55;41.57;100972.56;5085106;28;20077;-92
2022/12/13 11:11:06;;;;;;;29.10;16.20;;;;;;;9.60;41.71;100973.25;5085406;28;20387;-92
2022/12/13 11:13:39;;;;;;;29.38;15.55;;;;;;;9.17;41.63;100969.41;5073152;28;20028;-91
2022/12/13 11:16:24;;;;;;;30.10;15.73;;;;;;;7.94;43.27;100972.16;5089319;28;20287;-92
2022/12/13 11:18:53;;;;;;;28.08;14.57;;;;;;;7.71;44.79;100970.16;5079273;28;20059;-92
2022/12/13 11:21:27;;;;;;;30.98;15.88;;;;;;;7.04;47.62;100951.66;5087277;28;20028;-92
2022/12/13 11:24:00;;;;;;;28.38;16.13;;;;;;;6.44;46.46;100967.03;5077601;28;20495;-92
2022/12/13 11:26:27;;;;;;;;;;;;;;;6.14;49.40;100970.25;5074324;28;20016;-92